Etusivu
METAR-TAF:

METAR-TAF

Lentoasemat :

Schoolcraft County Airport

Manistique, Michigan, Yhdysvallat

Leveyspiiri: 45-58-29N, Pituuspiiri: 086-10-19W, korkeus merenpinnasta: 209 m

Tämänhetkinen sää

Tämä raportti tehtiin 23 minuuttia sitten, kello 14.16 UTC
Tuuli 9 kn idästä puuskistuen 14 kn:hen
Lämpötila 8°C
Kosteus 87%
Ilmanpaine 1016 hPa
Näkyvyys: 16.1 km
Hajanaisia pilviä 4900 ft:n korkeudessa
Pilvistä 7000 ft:n korkeudessa
heikkoa sadetta

METAR: KISQ 221416Z AUTO 09009G14KT 10SM -RA SCT049 OVC070 08/06 A3001 RMK AO2 T00800064

Aika: 10:39 (14:39 UTC)


TAF: puuttuu

Säähavainnot ja -ennusteet yli 4000 lentoasemalta (METAR- ja TAF-raportit).

Käytössä olevat sääasemat on merkitty karttaan keltaisilla ja punaisilla pisteillä.

Aseta hiiri pisteen päälle nähdäksesi sääaseman nimen.

Klikkaa sitten nähdäksesi säähavainnot ja -ennusteet.

Kartan vaihtaminen: klikkaa mustalla rastilla varustettuja vihreitä pisteitä, niin voit zoomata sisään; viivalla varustettua vihreää pistettä, niin voit zoomata ulos tai vihreitä nuolia, niin pääset viereisille kartoille.


METAR-TAF: